Time;durP1;ratioP1;P1;durP2;ratioP2;P2;SDS_P1;SDS_P2;PMS_P1;PMS_P2;Temp;Humidity;BMP_temperature;BMP_pressure;BME280_temperature;BME280_humidity;BME280_pressure;Samples;Min_cycle;Max_cycle;Signal;HPM_P1;HPM_P2
2024/01/10 00:00:55;;;;;;;11.20;5.57;;;;;;;-7.02;80.37;102704.75;5053475;28;20049;-87
2024/01/10 00:03:23;;;;;;;11.40;5.43;;;;;;;-7.03;80.87;102696.97;5066477;28;20045;-86
2024/01/10 00:05:59;;;;;;;15.03;7.00;;;;;;;-7.05;80.49;102689.19;5021579;28;20504;-87
2024/01/10 00:08:28;;;;;;;11.43;6.37;;;;;;;-7.05;80.97;102690.84;5008288;28;20049;-87
2024/01/10 00:10:57;;;;;;;12.27;6.13;;;;;;;-7.08;81.08;102696.53;5054682;28;20046;-87
2024/01/10 00:13:24;;;;;;;11.77;7.47;;;;;;;-7.09;80.72;102684.56;5049189;28;20042;-88
2024/01/10 00:15:58;;;;;;;10.43;5.30;;;;;;;-7.13;81.34;102682.50;5005529;28;20049;-88
2024/01/10 00:18:28;;;;;;;10.43;6.00;;;;;;;-7.12;82.23;102681.72;5040511;28;20075;-86
2024/01/10 00:20:58;;;;;;;15.70;6.83;;;;;;;-7.16;81.81;102692.38;5039909;28;20113;-88
2024/01/10 00:23:33;;;;;;;11.40;5.63;;;;;;;-7.15;82.24;102677.22;5039724;28;20041;-86
2024/01/10 00:26:09;;;;;;;13.40;6.00;;;;;;;-7.16;82.55;102674.53;5054597;28;20140;-85
2024/01/10 00:31:20;;;;;;;12.63;6.67;;;;;;;-7.14;83.10;102678.16;5031740;28;20488;-87
2024/01/10 00:33:52;;;;;;;12.37;5.53;;;;;;;-7.15;83.12;102672.13;5038399;28;20427;-88
2024/01/10 00:36:19;;;;;;;11.27;6.43;;;;;;;-7.14;83.47;102673.06;5029061;28;20045;-87
2024/01/10 00:38:46;;;;;;;15.37;7.00;;;;;;;-7.20;83.50;102668.25;5007926;28;20045;-85
2024/01/10 00:41:16;;;;;;;11.50;5.93;;;;;;;-7.20;83.61;102665.72;5034736;28;20041;-87
2024/01/10 00:43:46;;;;;;;14.17;7.50;;;;;;;-7.21;83.58;102666.50;5020969;28;20037;-86
2024/01/10 00:46:16;;;;;;;14.83;6.03;;;;;;;-7.19;83.89;102669.19;5036481;28;20071;-87
2024/01/10 00:48:46;;;;;;;17.10;7.17;;;;;;;-7.22;83.79;102668.88;5021807;28;20045;-88
2024/01/10 00:51:15;;;;;;;14.87;6.53;;;;;;;-7.23;83.41;102667.09;5044658;28;20075;-87
2024/01/10 00:53:54;;;;;;;13.20;7.10;;;;;;;-7.22;83.79;102669.78;5006514;28;20053;-88
2024/01/10 00:56:23;;;;;;;12.03;6.37;;;;;;;-7.25;83.92;102666.91;5018220;28;20041;-88
2024/01/10 00:58:57;;;;;;;13.90;6.90;;;;;;;-7.22;83.94;102663.78;5024250;28;20112;-86
2024/01/10 01:01:28;;;;;;;;;;;;;;;-7.25;84.00;102666.03;5053966;28;20059;-87
2024/01/10 01:04:00;;;;;;;12.97;6.70;;;;;;;-7.25;84.28;102668.59;5042220;28;19964;-88
2024/01/10 01:06:29;;;;;;;15.07;7.33;;;;;;;-7.32;84.11;102669.66;5040347;28;20049;-87
2024/01/10 01:08:59;;;;;;;15.23;6.83;;;;;;;-7.34;84.60;102666.97;5053098;28;20037;-85
2024/01/10 01:11:28;;;;;;;13.07;7.13;;;;;;;-7.42;84.74;102665.31;5007333;28;20048;-86
2024/01/10 01:13:57;;;;;;;16.63;7.33;;;;;;;-7.40;84.90;102666.38;5035585;28;20038;-89
2024/01/10 01:16:26;;;;;;;14.83;7.47;;;;;;;-7.43;85.40;102667.72;5037844;28;20045;-86
2024/01/10 01:18:56;;;;;;;12.03;6.47;;;;;;;-7.38;85.37;102677.59;5037551;28;20033;-86
2024/01/10 01:21:29;;;;;;;15.80;7.63;;;;;;;-7.38;85.40;102672.50;5012027;28;20131;-89
2024/01/10 01:23:56;;;;;;;14.03;6.93;;;;;;;-7.38;85.82;102669.97;5038375;28;20069;-88
2024/01/10 01:26:28;;;;;;;16.23;7.30;;;;;;;-7.39;85.87;102673.25;5054948;28;20463;-86
2024/01/10 01:29:02;;;;;;;16.13;7.20;;;;;;;-7.43;85.90;102665.16;5005933;28;20368;-87
2024/01/10 01:31:30;;;;;;;17.55;7.28;;;;;;;-7.44;86.05;102671.91;5006864;28;20049;-86
2024/01/10 01:34:03;;;;;;;21.33;7.53;;;;;;;-7.43;85.99;102665.16;5005410;28;20041;-86
2024/01/10 01:36:30;;;;;;;13.80;6.83;;;;;;;-7.42;86.13;102672.94;5003372;28;20378;-86
2024/01/10 01:38:57;;;;;;;14.63;8.27;;;;;;;-7.43;86.01;102672.78;5033214;28;20057;-88
2024/01/10 01:41:27;;;;;;;15.53;7.53;;;;;;;-7.45;86.32;102675.19;5032590;28;20040;-89
2024/01/10 01:43:59;;;;;;;17.20;7.53;;;;;;;-7.46;86.35;102675.94;5045511;28;20094;-88
2024/01/10 01:46:28;;;;;;;16.13;7.10;;;;;;;-7.51;87.17;102675.50;5034985;28;20034;-89
2024/01/10 01:48:55;;;;;;;18.83;7.67;;;;;;;-7.51;87.04;102678.06;5036482;28;20099;-86
2024/01/10 01:51:29;;;;;;;13.70;6.80;;;;;;;-7.52;87.16;102667.72;5048059;28;20052;-88
2024/01/10 01:54:09;;;;;;;12.00;7.17;;;;;;;-7.55;87.16;102672.50;5053433;28;20088;-87
2024/01/10 01:56:41;;;;;;;14.68;7.05;;;;;;;-7.53;87.27;102671.91;5034573;28;20042;-89
2024/01/10 01:59:09;;;;;;;13.03;6.73;;;;;;;-7.54;87.79;102672.66;5067225;28;20122;-87
2024/01/10 02:01:39;;;;;;;12.47;7.60;;;;;;;-7.54;88.28;102662.47;5032422;28;20052;-87
2024/01/10 02:04:06;;;;;;;14.43;7.30;;;;;;;-7.56;88.62;102660.53;5053929;28;20042;-86
2024/01/10 02:06:33;;;;;;;14.20;8.40;;;;;;;-7.59;89.26;102662.78;5008424;28;20037;-89
2024/01/10 02:09:04;;;;;;;13.70;8.10;;;;;;;-7.61;89.75;102662.66;5022119;28;20046;-89
2024/01/10 02:11:36;;;;;;;14.17;7.13;;;;;;;-7.58;90.03;102662.94;5034873;28;20137;-88
2024/01/10 02:14:13;;;;;;;14.67;7.53;;;;;;;-7.59;90.44;102660.25;5037631;28;20059;-87
2024/01/10 02:16:40;;;;;;;15.57;7.93;;;;;;;-7.65;90.35;102658.91;5020986;28;20049;-87
2024/01/10 02:19:26;;;;;;;14.43;8.33;;;;;;;-7.64;91.87;102659.78;5055867;28;20442;-85
2024/01/10 02:21:53;;;;;;;15.98;7.85;;;;;;;-7.69;91.91;102663.53;5035775;28;20118;-88
2024/01/10 02:24:22;;;;;;;16.23;8.33;;;;;;;-7.71;92.51;102654.88;5039754;28;20076;-86
2024/01/10 02:26:52;;;;;;;15.27;7.73;;;;;;;-7.73;92.75;102656.38;5036698;28;20033;-85
2024/01/10 02:29:19;;;;;;;14.70;8.30;;;;;;;-7.73;92.81;102651.28;5039110;28;20148;-85
2024/01/10 02:31:46;;;;;;;14.67;8.13;;;;;;;-7.71;93.46;102645.59;5038052;28;20381;-88
2024/01/10 02:34:16;;;;;;;11.90;7.13;;;;;;;-7.72;93.66;102645.44;5038079;28;20033;-90
2024/01/10 02:36:46;;;;;;;17.67;8.03;;;;;;;-7.71;93.47;102645.59;5035104;28;20095;-87
2024/01/10 02:39:15;;;;;;;16.33;8.27;;;;;;;-7.74;93.56;102650.38;5034507;28;20045;-89
2024/01/10 02:41:45;;;;;;;16.07;7.77;;;;;;;-7.73;94.15;102648.72;5048475;28;20077;-88
2024/01/10 02:44:14;;;;;;;20.23;10.03;;;;;;;-7.71;93.81;102650.69;5051331;28;20049;-84
2024/01/10 02:46:43;;;;;;;13.90;8.83;;;;;;;-7.70;94.00;102646.50;5020191;28;20046;-88
2024/01/10 02:49:10;;;;;;;18.23;7.77;;;;;;;-7.71;94.18;102645.59;5049721;28;20168;-89
2024/01/10 02:51:39;;;;;;;11.97;7.00;;;;;;;-7.72;94.49;102642.91;5045015;28;20050;-85
2024/01/10 02:54:06;;;;;;;17.60;7.87;;;;;;;-7.70;94.26;102641.41;5036526;28;20088;-87
2024/01/10 02:56:37;;;;;;;16.60;7.37;;;;;;;-7.75;93.81;102643.50;5005894;28;20113;-87
2024/01/10 02:59:04;;;;;;;21.33;9.20;;;;;;;-7.83;93.79;102641.88;5070429;28;20096;-85
2024/01/10 03:01:31;;;;;;;15.83;7.43;;;;;;;-7.74;93.96;102647.84;5041853;28;20048;-84
2024/01/10 03:04:00;;;;;;;15.77;8.37;;;;;;;-7.76;94.05;102636.63;5055447;28;20049;-86
2024/01/10 03:06:29;;;;;;;16.03;7.17;;;;;;;-7.76;94.52;102636.63;5023239;28;20520;-86
2024/01/10 03:08:56;;;;;;;20.53;9.83;;;;;;;-7.78;94.27;102638.13;5055256;28;20119;-86
2024/01/10 03:11:23;;;;;;;16.63;7.93;;;;;;;-7.74;94.11;102642.75;5041425;28;20353;-89
2024/01/10 03:14:09;;;;;;;17.87;8.90;;;;;;;-7.76;93.77;102645.91;5050344;28;20058;-87
2024/01/10 03:16:39;;;;;;;19.07;8.03;;;;;;;-7.74;94.41;102636.75;5037152;28;20046;-87
2024/01/10 03:19:06;;;;;;;11.50;6.90;;;;;;;-7.74;94.32;102635.13;5022024;28;20506;-88
2024/01/10 03:21:33;;;;;;;15.27;7.73;;;;;;;-7.73;94.38;102641.09;5027644;28;20050;-88
2024/01/10 03:24:03;;;;;;;14.87;7.57;;;;;;;-7.74;94.04;102631.66;5019085;28;20436;-84
2024/01/10 03:26:30;;;;;;;15.87;7.80;;;;;;;-7.81;94.13;102632.72;5013205;28;20069;-85
2024/01/10 03:28:58;;;;;;;17.47;8.93;;;;;;;-7.78;93.81;102633.03;5036342;28;20037;-88
2024/01/10 03:31:25;;;;;;;14.90;7.60;;;;;;;-7.79;94.14;102630.31;5014322;28;20128;-85
2024/01/10 03:34:00;;;;;;;16.93;8.00;;;;;;;-7.84;94.71;102624.81;5030924;28;20049;-89
2024/01/10 03:36:29;;;;;;;24.33;9.67;;;;;;;-7.89;94.81;102615.84;5009008;28;20152;-86
2024/01/10 03:38:56;;;;;;;15.33;7.97;;;;;;;-7.98;95.41;102618.38;5031035;28;20050;-87
2024/01/10 03:41:32;;;;;;;21.00;8.83;;;;;;;-7.98;95.32;102619.28;5028646;28;20042;-87
2024/01/10 03:43:58;;;;;;;16.00;8.03;;;;;;;-7.99;95.86;102612.41;4998933;28;20049;-88
2024/01/10 03:46:25;;;;;;;23.60;8.47;;;;;;;-7.99;96.00;102612.41;5044413;28;20069;-88
2024/01/10 03:48:52;;;;;;;14.47;8.17;;;;;;;-8.02;96.96;102616.28;5029552;28;20045;-88
2024/01/10 03:51:21;;;;;;;13.37;7.37;;;;;;;-8.03;96.84;102615.41;5045340;28;20420;-86
2024/01/10 03:53:48;;;;;;;21.03;9.43;;;;;;;-8.02;97.65;102617.16;5035329;28;20582;-85
2024/01/10 03:56:15;;;;;;;18.67;9.60;;;;;;;-7.97;97.66;102610.91;5062426;28;20053;-89
2024/01/10 03:58:42;;;;;;;19.77;8.17;;;;;;;-8.05;97.59;102608.38;5012074;28;20432;-87
2024/01/10 04:01:10;;;;;;;19.33;9.17;;;;;;;-8.05;97.83;102611.81;5026307;28;20049;-88
2024/01/10 04:03:38;;;;;;;21.70;10.00;;;;;;;-8.02;97.96;102616.28;5046176;28;20060;-86
2024/01/10 04:06:05;;;;;;;16.63;9.97;;;;;;;-8.02;97.63;102606.13;5030958;28;20053;-88
2024/01/10 04:08:34;;;;;;;18.77;8.87;;;;;;;-8.07;98.15;102607.31;5008833;28;20037;-89
2024/01/10 04:11:03;;;;;;;16.57;8.77;;;;;;;-8.05;97.70;102608.38;5064853;28;20045;-87
2024/01/10 04:13:29;;;;;;;20.00;9.83;;;;;;;-8.07;98.09;102608.22;5045339;28;20558;-86
2024/01/10 04:15:56;;;;;;;20.43;8.93;;;;;;;-8.04;99.05;102602.56;5047528;28;20042;-88
2024/01/10 04:18:23;;;;;;;15.00;9.07;;;;;;;-8.05;98.30;102605.84;5003213;28;20136;-87
2024/01/10 04:20:50;;;;;;;22.67;10.60;;;;;;;-8.06;99.17;102607.47;5016519;28;20049;-89
2024/01/10 04:23:17;;;;;;;21.87;9.30;;;;;;;-8.12;98.71;102609.41;5050375;28;20046;-88
2024/01/10 04:25:47;;;;;;;20.00;10.07;;;;;;;-8.17;99.11;102597.91;5046567;28;20046;-88
2024/01/10 04:28:22;;;;;;;18.67;10.07;;;;;;;-8.22;99.65;102596.56;5050428;28;20041;-87
2024/01/10 04:30:51;;;;;;;16.90;10.40;;;;;;;-8.20;100.00;102606.13;5032360;28;20042;-86
2024/01/10 04:33:22;;;;;;;26.80;10.90;;;;;;;-8.19;100.00;102607.91;5035170;28;20041;-87
2024/01/10 04:35:50;;;;;;;17.57;9.30;;;;;;;-8.16;100.00;102602.22;5053167;28;20141;-86
2024/01/10 04:38:18;;;;;;;28.00;12.43;;;;;;;-8.16;100.00;102599.69;5016125;28;20048;-86
2024/01/10 04:40:45;;;;;;;20.57;10.40;;;;;;;-8.17;100.00;102608.97;5031538;28;20045;-85
2024/01/10 04:43:14;;;;;;;23.30;11.20;;;;;;;-8.18;100.00;102602.06;5016927;28;20069;-87
2024/01/10 04:45:48;;;;;;;22.37;11.27;;;;;;;-8.14;100.00;102601.63;5030202;28;20049;-85
2024/01/10 04:48:24;;;;;;;24.63;12.87;;;;;;;-8.22;100.00;102599.97;5016851;28;20516;-87
2024/01/10 04:50:51;;;;;;;27.80;11.73;;;;;;;-8.18;100.00;102603.72;5043790;28;20050;-85
2024/01/10 04:53:20;;;;;;;27.37;12.97;;;;;;;-8.20;100.00;102598.50;5015013;28;20143;-88
2024/01/10 04:55:50;;;;;;;25.47;12.33;;;;;;;-8.17;100.00;102598.78;5030714;28;20068;-88
2024/01/10 04:58:19;;;;;;;25.43;12.10;;;;;;;-8.15;100.00;102596.41;5031598;28;20073;-87
2024/01/10 05:00:45;;;;;;;29.63;13.17;;;;;;;-8.15;100.00;102592.22;4997864;28;20045;-87
2024/01/10 05:03:15;;;;;;;26.80;12.77;;;;;;;-8.18;100.00;102591.03;5064953;28;20452;-88
2024/01/10 05:05:45;;;;;;;24.63;10.87;;;;;;;-8.21;100.00;102594.16;5015977;28;20072;-88
2024/01/10 05:08:11;;;;;;;30.57;13.33;;;;;;;-8.20;100.00;102584.88;5036372;28;20049;-86
2024/01/10 05:10:41;;;;;;;27.00;13.20;;;;;;;-8.18;100.00;102585.94;5048960;28;20457;-85
2024/01/10 05:13:08;;;;;;;29.93;12.53;;;;;;;-8.16;100.00;102584.44;5036300;28;20067;-85
2024/01/10 05:15:37;;;;;;;29.93;11.90;;;;;;;-8.19;100.00;102582.50;5034615;28;20045;-87
2024/01/10 05:18:04;;;;;;;28.50;14.50;;;;;;;-8.28;100.00;102589.22;5041868;28;20132;-86
2024/01/10 05:20:31;;;;;;;23.70;12.07;;;;;;;-8.31;100.00;102594.00;5036076;28;20056;-85
2024/01/10 05:22:58;;;;;;;30.53;14.13;;;;;;;-8.31;100.00;102587.25;5013750;28;20049;-86
2024/01/10 05:25:32;;;;;;;28.23;13.10;;;;;;;-8.33;100.00;102581.16;5051475;28;20057;-88
2024/01/10 05:27:59;;;;;;;30.40;13.00;;;;;;;-8.33;100.00;102580.25;5028520;28;20034;-86
2024/01/10 05:30:26;;;;;;;28.30;14.10;;;;;;;-8.28;100.00;102583.25;5047593;28;20051;-86
2024/01/10 05:33:02;;;;;;;40.67;14.90;;;;;;;-8.32;100.00;102579.50;5046009;28;20045;-87
2024/01/10 05:35:32;;;;;;;35.27;15.53;;;;;;;-8.35;100.00;102580.09;5043852;28;20068;-86
2024/01/10 05:37:59;;;;;;;29.97;14.77;;;;;;;-8.33;100.00;102582.78;5046589;28;20080;-87
2024/01/10 05:40:31;;;;;;;29.70;14.57;;;;;;;-8.35;100.00;102591.91;5037848;28;20118;-86
2024/01/10 05:43:00;;;;;;;28.13;14.73;;;;;;;-8.36;100.00;102588.47;5013149;28;20045;-87
2024/01/10 05:45:28;;;;;;;27.73;12.80;;;;;;;-8.36;100.00;102593.53;4995906;28;20052;-86
2024/01/10 05:47:57;;;;;;;27.40;14.47;;;;;;;-8.32;100.00;102597.28;5048659;28;20076;-84
2024/01/10 05:50:25;;;;;;;36.53;14.87;;;;;;;-8.35;100.00;102604.63;5032459;28;20488;-87
2024/01/10 05:52:52;;;;;;;29.47;14.27;;;;;;;-8.37;100.00;102599.38;5063975;28;20120;-87
2024/01/10 05:55:19;;;;;;;31.67;15.67;;;;;;;-8.37;100.00;102603.56;5065343;28;20049;-88
2024/01/10 05:57:46;;;;;;;32.40;15.93;;;;;;;-8.38;100.00;102592.50;5000764;28;20083;-87
2024/01/10 06:00:16;;;;;;;32.80;15.67;;;;;;;-8.37;100.00;102586.69;5034940;28;20116;-86
2024/01/10 06:02:44;;;;;;;27.77;14.03;;;;;;;-8.34;100.00;102589.50;5019644;28;20044;-86
2024/01/10 06:05:15;;;;;;;27.87;15.40;;;;;;;-8.37;100.00;102589.22;5002951;28;20412;-85
2024/01/10 06:07:42;;;;;;;35.50;15.53;;;;;;;-8.34;100.00;102592.06;5030731;28;20573;-86
2024/01/10 06:10:09;;;;;;;30.63;15.40;;;;;;;-8.31;100.00;102597.44;5033106;28;20052;-85
2024/01/10 06:12:37;;;;;;;30.07;13.90;;;;;;;-8.30;100.00;102590.72;5031839;28;20122;-87
2024/01/10 06:15:08;;;;;;;29.47;14.63;;;;;;;-8.29;100.00;102589.06;5003595;28;20111;-87
2024/01/10 06:17:43;;;;;;;32.87;15.13;;;;;;;-8.30;100.00;102590.72;5050081;28;20392;-86
2024/01/10 06:20:10;;;;;;;35.37;13.23;;;;;;;-8.28;100.00;102595.94;5030643;28;20076;-87
2024/01/10 06:22:37;;;;;;;33.40;14.73;;;;;;;-8.31;100.00;102591.47;5031291;28;20058;-88
2024/01/10 06:25:04;;;;;;;28.10;14.23;;;;;;;-8.29;100.00;102594.16;5049799;28;21650;-87
2024/01/10 06:27:36;;;;;;;31.33;15.43;;;;;;;-8.32;100.00;102599.81;5016234;28;20053;-85
2024/01/10 06:30:03;;;;;;;31.77;16.10;;;;;;;-8.29;100.00;102596.69;5073533;28;20073;-88
2024/01/10 06:32:29;;;;;;;36.10;15.07;;;;;;;-8.31;100.00;102592.34;5032554;28;20053;-87
2024/01/10 06:34:56;;;;;;;28.80;14.10;;;;;;;-8.32;100.00;102585.50;5036644;28;20051;-84
2024/01/10 06:37:25;;;;;;;28.33;14.90;;;;;;;-8.32;100.00;102584.59;5033014;28;20053;-86
2024/01/10 06:39:52;;;;;;;32.63;16.03;;;;;;;-8.33;100.00;102593.84;5038381;28;20042;-87
2024/01/10 06:42:22;;;;;;;26.33;13.73;;;;;;;-8.39;100.00;102590.72;5043543;28;20155;-86
2024/01/10 06:44:53;;;;;;;29.93;13.50;;;;;;;-8.38;100.00;102589.97;5034035;28;20057;-87
2024/01/10 06:47:21;;;;;;;32.40;15.43;;;;;;;-8.40;100.00;102591.44;5066152;28;20057;-87
2024/01/10 06:49:50;;;;;;;36.70;17.70;;;;;;;-8.36;100.00;102591.00;5014419;28;20056;-85
2024/01/10 06:52:18;;;;;;;36.27;15.63;;;;;;;-8.37;100.00;102590.84;5017599;28;20097;-87
2024/01/10 06:55:25;;;;;;;;;;;;;;;;;;;;;
2024/01/10 06:58:15;;;;;;;29.97;13.93;;;;;;;-8.51;100.00;102592.09;5048875;28;20045;-85
2024/01/10 07:00:41;;;;;;;39.60;15.00;;;;;;;-8.50;100.00;102591.31;5018099;28;20412;-87
2024/01/10 07:03:14;;;;;;;30.20;13.67;;;;;;;-8.50;100.00;102583.69;5036224;28;20053;-86
2024/01/10 07:05:44;;;;;;;31.57;13.17;;;;;;;-8.53;100.00;102588.47;5023240;28;20054;-88
2024/01/10 07:08:30;;;;;;;30.53;14.47;;;;;;;-8.55;100.00;102582.34;5036133;28;20099;-86
2024/01/10 07:11:09;;;;;;;33.13;15.63;;;;;;;-8.57;100.00;102582.19;5004248;28;20053;-90
2024/01/10 07:13:39;;;;;;;30.80;14.00;;;;;;;-8.54;100.00;102596.84;5049095;28;20116;-86
2024/01/10 07:16:10;;;;;;;29.07;16.37;;;;;;;-8.50;100.00;102591.31;5003747;28;20109;-85
2024/01/10 07:18:37;;;;;;;23.17;14.33;;;;;;;-8.52;100.00;102596.25;5047408;28;20087;-88
2024/01/10 07:21:09;;;;;;;31.70;14.73;;;;;;;-8.52;100.00;102595.34;5035483;28;20529;-85
2024/01/10 07:23:43;;;;;;;33.55;14.95;;;;;;;-8.58;100.00;102607.44;5033309;28;20056;-87
2024/01/10 07:26:16;;;;;;;29.90;13.93;;;;;;;-8.58;100.00;102605.78;5047063;28;20124;-86
2024/01/10 07:28:44;;;;;;;30.47;14.23;;;;;;;-8.63;100.00;102603.53;5030785;28;20045;-87
2024/01/10 07:34:12;;;;;;;28.92;14.93;;;;;;;-8.59;100.00;102614.16;5030620;28;20151;-90
2024/01/10 07:37:39;;;;;;;34.58;15.93;;;;;;;-8.55;100.00;102611.19;5036209;28;20053;-90
2024/01/10 07:41:16;;;;;;;36.07;16.10;;;;;;;-8.54;100.00;102613.00;5029329;28;20053;-89
2024/01/10 07:44:03;;;;;;;;;;;;;;;;;;;;;
2024/01/10 07:46:42;;;;;;;31.67;14.37;;;;;;;-8.51;100.00;102609.84;5052243;28;20103;-88
2024/01/10 07:49:16;;;;;;;30.33;14.77;;;;;;;-8.46;100.00;102613.72;5016808;28;20044;-85
2024/01/10 07:51:43;;;;;;;32.57;15.77;;;;;;;-8.52;100.00;102616.56;5033370;28;20528;-88
2024/01/10 07:54:13;;;;;;;37.93;16.23;;;;;;;-8.46;100.00;102610.28;5051807;28;20512;-85
2024/01/10 07:56:49;;;;;;;33.27;16.77;;;;;;;-8.49;100.00;102619.38;5019414;28;20076;-88
2024/01/10 07:59:16;;;;;;;36.50;15.43;;;;;;;-8.55;100.00;102607.72;5067519;28;20060;-87
2024/01/10 08:01:56;;;;;;;33.20;17.10;;;;;;;-8.50;100.00;102612.53;5055812;28;20120;-87
2024/01/10 08:04:35;;;;;;;40.37;16.17;;;;;;;-8.46;100.00;102623.00;5035146;28;20041;-88
2024/01/10 08:07:08;;;;;;;34.83;16.53;;;;;;;-8.48;100.00;102625.38;5054745;28;20045;-89
2024/01/10 08:09:35;;;;;;;34.87;16.07;;;;;;;-8.40;100.00;102631.19;5048953;28;20056;-87
2024/01/10 08:12:13;;;;;;;33.67;16.77;;;;;;;-8.39;100.00;102631.34;5031397;28;20045;-88
2024/01/10 08:14:41;;;;;;;29.87;13.70;;;;;;;-8.40;100.00;102632.09;5024025;28;20774;-87
2024/01/10 08:17:08;;;;;;;34.53;16.67;;;;;;;-8.42;100.00;102623.44;5021378;28;20059;-88
2024/01/10 08:19:35;;;;;;;44.87;16.53;;;;;;;-8.37;100.00;102619.72;5033210;28;20041;-89
2024/01/10 08:22:07;;;;;;;34.87;16.93;;;;;;;-8.36;100.00;102624.00;5033175;28;20045;-86
2024/01/10 08:24:37;;;;;;;33.77;16.57;;;;;;;-8.32;100.00;102628.69;5034068;28;20053;-87
2024/01/10 08:27:06;;;;;;;36.57;17.47;;;;;;;-8.30;100.00;102616.13;5046173;28;20041;-88
2024/01/10 08:29:35;;;;;;;41.03;17.83;;;;;;;-8.29;100.00;102617.00;5033662;28;20073;-89
2024/01/10 08:32:04;;;;;;;36.60;16.93;;;;;;;-8.25;100.00;102619.09;5050099;28;20046;-88
2024/01/10 08:34:31;;;;;;;38.00;15.60;;;;;;;-8.19;100.00;102610.44;5015854;28;20053;-85
2024/01/10 08:36:57;;;;;;;34.70;15.37;;;;;;;-8.14;100.00;102608.38;5033355;28;20038;-87
2024/01/10 08:39:28;;;;;;;42.63;17.87;;;;;;;-8.25;100.00;102614.03;5034005;28;20104;-88
2024/01/10 08:41:55;;;;;;;35.37;16.50;;;;;;;-8.24;100.00;102613.28;5050916;28;20056;-88
2024/01/10 08:44:23;;;;;;;38.50;15.90;;;;;;;-8.19;100.00;102612.97;5034060;28;20045;-86
2024/01/10 08:46:51;;;;;;;35.47;16.17;;;;;;;-8.19;100.00;102612.97;5023363;28;20170;-90
2024/01/10 08:49:21;;;;;;;35.77;16.73;;;;;;;-8.16;100.00;102608.22;5065188;28;20068;-87
2024/01/10 08:51:48;;;;;;;40.30;16.93;;;;;;;-8.12;100.00;102611.03;5031866;28;20053;-87
2024/01/10 08:54:19;;;;;;;33.23;15.87;;;;;;;-8.07;100.00;102618.41;5029937;28;20515;-86
2024/01/10 08:56:46;;;;;;;32.90;16.87;;;;;;;-7.99;100.00;102614.94;5065977;28;20053;-89
2024/01/10 08:59:13;;;;;;;45.33;17.50;;;;;;;-7.99;100.00;102608.94;5031611;28;20041;-88
2024/01/10 09:01:43;;;;;;;40.23;17.53;;;;;;;-7.92;99.59;102602.84;5038120;28;20063;-87
2024/01/10 09:04:13;;;;;;;31.60;17.13;;;;;;;-7.85;99.62;102607.75;5043078;28;20080;-90
2024/01/10 09:06:39;;;;;;;45.43;18.83;;;;;;;-7.89;98.32;102604.00;5016656;28;20107;-88
2024/01/10 09:09:09;;;;;;;37.70;17.57;;;;;;;-7.87;98.00;102616.91;5026118;28;20489;-85
2024/01/10 09:11:36;;;;;;;33.80;17.10;;;;;;;-7.83;97.57;102608.81;5027217;28;20080;-89
2024/01/10 09:14:03;;;;;;;40.47;18.73;;;;;;;-7.79;97.31;102615.06;5030006;28;20061;-91
2024/01/10 09:16:29;;;;;;;36.47;17.50;;;;;;;-7.74;96.99;102602.06;5031141;28;20053;-88
2024/01/10 09:18:59;;;;;;;39.93;18.07;;;;;;;-7.68;96.92;102611.94;5043464;28;20068;-88
2024/01/10 09:21:30;;;;;;;38.40;17.43;;;;;;;-7.69;96.04;102608.50;5026485;28;20060;-88
2024/01/10 09:24:04;;;;;;;37.47;17.33;;;;;;;-7.67;96.35;102596.81;5014479;28;20045;-88
2024/01/10 09:26:32;;;;;;;41.90;18.73;;;;;;;-7.61;95.97;102603.25;5063508;28;20038;-85
2024/01/10 09:29:03;;;;;;;39.60;18.07;;;;;;;-7.56;96.10;102594.41;5016619;28;20144;-86
2024/01/10 09:31:30;;;;;;;29.93;17.10;;;;;;;-7.43;95.88;102599.94;5030735;28;20046;-90
2024/01/10 09:33:57;;;;;;;31.23;17.73;;;;;;;-7.43;94.45;102599.94;5031535;28;20125;-89
2024/01/10 09:36:24;;;;;;;35.37;17.90;;;;;;;-7.49;94.21;102604.44;5047309;28;21389;-86
2024/01/10 09:38:51;;;;;;;44.10;18.63;;;;;;;-7.45;93.35;102601.44;5054143;28;20091;-89
2024/01/10 09:41:22;;;;;;;39.53;19.00;;;;;;;-7.40;93.17;102601.88;5018264;28;20029;-88
2024/01/10 09:43:52;;;;;;;41.53;18.73;;;;;;;-7.37;92.32;102602.16;5017736;28;20335;-89
2024/01/10 09:46:19;;;;;;;39.30;17.20;;;;;;;-7.35;91.63;102605.75;5001013;28;20033;-90
2024/01/10 09:48:48;;;;;;;42.57;20.80;;;;;;;-7.24;92.10;102597.47;5032832;28;20054;-87
2024/01/10 09:51:21;;;;;;;36.37;17.30;;;;;;;-7.11;92.08;102596.97;5050690;28;20497;-90
2024/01/10 09:54:09;;;;;;;40.87;16.90;;;;;;;-7.01;91.45;102597.09;5045437;28;20064;-87
2024/01/10 09:56:42;;;;;;;35.67;17.47;;;;;;;-7.00;90.51;102595.44;5048264;28;20049;-85
2024/01/10 09:59:12;;;;;;;35.05;17.60;;;;;;;-7.01;89.08;102598.75;5031504;28;20049;-87
2024/01/10 10:01:40;;;;;;;39.73;17.00;;;;;;;-6.90;89.24;102592.09;5046076;28;20057;-87
2024/01/10 10:04:08;;;;;;;32.27;15.90;;;;;;;-6.84;89.14;102591.00;5055450;28;20045;-89
2024/01/10 10:06:35;;;;;;;33.93;17.37;;;;;;;-6.82;87.95;102586.97;4997977;28;20076;-89
2024/01/10 10:09:01;;;;;;;38.70;16.20;;;;;;;-6.78;87.11;102583.03;5026297;28;20477;-88
2024/01/10 10:11:38;;;;;;;37.47;17.47;;;;;;;-6.70;86.98;102579.56;5032252;28;20120;-86
2024/01/10 10:14:22;;;;;;;44.90;18.23;;;;;;;-6.65;86.09;102577.44;5014391;28;20053;-87
2024/01/10 10:16:49;;;;;;;41.75;18.20;;;;;;;-6.65;84.73;102578.34;5031823;28;20075;-87
2024/01/10 10:19:26;;;;;;;44.17;19.43;;;;;;;-6.63;84.11;102575.00;5051931;28;20034;-88
2024/01/10 10:21:53;;;;;;;36.50;17.30;;;;;;;-6.54;83.05;102576.75;5015873;28;20068;-89
2024/01/10 10:24:23;;;;;;;39.13;18.57;;;;;;;-6.51;82.19;102571.06;5006275;28;20042;-90
2024/01/10 10:26:58;;;;;;;39.57;19.50;;;;;;;-6.46;81.73;102579.13;5037620;28;20139;-89
2024/01/10 10:29:26;;;;;;;36.07;19.07;;;;;;;-6.38;80.65;102576.50;5002813;28;20057;-88
2024/01/10 10:31:53;;;;;;;33.30;17.13;;;;;;;-6.39;79.83;102569.59;5038802;28;20123;-89
2024/01/10 10:34:25;;;;;;;40.87;19.07;;;;;;;-6.30;79.76;102572.09;5032075;28;20045;-90
2024/01/10 10:36:53;;;;;;;33.13;17.00;;;;;;;-6.46;78.75;102561.28;5049756;28;20049;-89
2024/01/10 10:39:19;;;;;;;40.00;17.70;;;;;;;-6.35;78.36;102566.59;5000603;28;20041;-86
2024/01/10 10:41:57;;;;;;;33.27;17.33;;;;;;;-6.34;77.87;102562.38;5030699;28;20073;-86
2024/01/10 10:44:42;;;;;;;;;;;;;;;;;;;;;
2024/01/10 10:47:12;;;;;;;39.23;18.33;;;;;;;-6.17;77.32;102552.03;5001823;28;20041;-87
2024/01/10 10:49:54;;;;;;;31.33;17.30;;;;;;;-6.09;77.42;102544.19;5017826;28;20048;-86
2024/01/10 10:52:55;;;;;;;42.33;19.13;;;;;;;-6.05;76.97;102552.28;5041084;28;20061;-88
2024/01/10 10:56:30;;;;;;;;;;;;;;;;;;;;;
2024/01/10 10:59:00;;;;;;;40.35;18.85;;;;;;;-5.77;77.51;102549.56;5039701;28;20033;-88
2024/01/10 11:01:43;;;;;;;36.67;17.67;;;;;;;-5.79;76.06;102548.50;5060896;28;20103;-89
2024/01/10 11:04:49;;;;;;;35.00;17.75;;;;;;;-5.66;76.65;102546.31;5054332;28;20072;-88
2024/01/10 11:07:25;;;;;;;42.97;17.97;;;;;;;-5.62;75.42;102542.34;5037493;28;20045;-88
2024/01/10 11:09:57;;;;;;;37.27;17.57;;;;;;;-5.57;75.48;102540.19;5042377;28;20044;-86
2024/01/10 11:12:59;;;;;;;39.27;18.80;;;;;;;-5.53;75.30;102547.34;5033190;28;20103;-86
2024/01/10 11:16:11;;;;;;;41.63;18.17;;;;;;;-5.45;74.54;102541.25;5024304;28;20053;-85
2024/01/10 11:19:03;;;;;;;42.20;18.40;;;;;;;-5.45;73.03;102537.81;5028034;28;20107;-87
2024/01/10 11:22:17;;;;;;;43.33;18.23;;;;;;;-5.44;73.46;102539.59;5034452;28;20069;-86
2024/01/10 11:24:46;;;;;;;34.17;18.00;;;;;;;-5.38;73.07;102530.81;5038590;28;20045;-89
2024/01/10 11:27:15;;;;;;;41.93;18.93;;;;;;;-5.38;72.10;102522.28;5041414;28;20049;-85
2024/01/10 11:29:43;;;;;;;42.27;17.67;;;;;;;-5.31;72.00;102522.03;5000886;28;20262;-88
2024/01/10 11:32:18;;;;;;;29.70;16.83;;;;;;;-5.25;72.06;102530.22;5047925;28;20125;-87
2024/01/10 11:34:59;;;;;;;39.43;17.77;;;;;;;-5.19;71.61;102529.84;5014814;28;20041;-86
2024/01/10 11:37:50;;;;;;;36.83;18.27;;;;;;;-5.16;70.25;102528.44;4686445;28;10001457;-87
2024/01/10 11:40:49;;;;;;;35.92;16.95;;;;;;;-5.09;70.77;102524.75;5015053;28;20045;-85